createdAt,value
2022-10-13T00:00:20.028Z,0.00
2022-10-13T00:01:20.025Z,0.00
2022-10-13T00:02:20.443Z,0.00
2022-10-13T00:03:19.975Z,0.00
2022-10-13T00:04:19.973Z,0.00
2022-10-13T00:05:20.002Z,0.00
2022-10-13T00:06:19.951Z,0.00
2022-10-13T00:07:19.956Z,0.00
2022-10-13T00:08:19.907Z,0.00
2022-10-13T00:09:19.935Z,0.00
2022-10-13T00:10:19.940Z,0.00
2022-10-13T00:11:19.899Z,0.00
2022-10-13T00:12:20.266Z,0.00
2022-10-13T00:13:19.866Z,0.00
2022-10-13T00:14:19.866Z,0.00
2022-10-13T00:15:20.851Z,0.00
2022-10-13T00:16:19.837Z,0.00
2022-10-13T00:17:19.842Z,0.00
2022-10-13T00:18:19.810Z,0.00
2022-10-13T00:19:19.822Z,0.00
2022-10-13T00:20:19.860Z,0.00
2022-10-13T00:21:19.804Z,0.00
2022-10-13T00:22:21.153Z,0.00
2022-10-13T00:23:19.769Z,0.00
2022-10-13T00:24:19.758Z,0.00
2022-10-13T00:25:19.792Z,0.00
2022-10-13T00:26:19.735Z,0.00
2022-10-13T00:27:19.746Z,0.00
2022-10-13T00:28:19.752Z,0.00
2022-10-13T00:29:19.702Z,0.00
2022-10-13T00:30:19.755Z,0.00
2022-10-13T00:31:19.742Z,0.00
2022-10-13T00:32:20.053Z,0.00
2022-10-13T00:33:19.669Z,0.00
2022-10-13T00:34:19.753Z,0.00
2022-10-13T00:35:19.669Z,0.00
2022-10-13T00:36:19.685Z,0.00
2022-10-13T00:37:19.624Z,0.00
2022-10-13T00:38:19.622Z,0.00
2022-10-13T00:39:19.604Z,0.00
2022-10-13T00:40:19.610Z,0.00
2022-10-13T00:41:19.599Z,0.00
2022-10-13T00:42:19.944Z,0.00
2022-10-13T00:43:19.581Z,0.00
2022-10-13T00:44:19.564Z,0.00
2022-10-13T00:45:19.553Z,0.00
2022-10-13T00:46:19.558Z,0.00
2022-10-13T00:47:19.547Z,0.00
2022-10-13T00:48:19.541Z,0.00
2022-10-13T00:49:19.543Z,0.00
2022-10-13T00:50:19.514Z,0.00
2022-10-13T00:51:19.514Z,0.00
2022-10-13T00:52:19.802Z,0.00
2022-10-13T00:53:19.470Z,0.00
2022-10-13T00:54:19.602Z,0.00
2022-10-13T00:55:19.461Z,0.00
2022-10-13T00:56:19.449Z,0.00
2022-10-13T00:57:19.466Z,0.00
2022-10-13T00:58:19.433Z,0.00
2022-10-13T00:59:19.414Z,0.00
2022-10-13T01:00:19.417Z,0.00
2022-10-13T01:01:19.377Z,0.00
2022-10-13T01:02:19.673Z,0.00
2022-10-13T01:03:19.403Z,0.00
2022-10-13T01:04:19.374Z,0.00
2022-10-13T01:05:19.375Z,0.00
2022-10-13T01:06:23.436Z,0.00
2022-10-13T01:07:20.356Z,0.00
2022-10-13T01:08:19.335Z,0.00
2022-10-13T01:09:19.343Z,0.00
2022-10-13T01:10:19.341Z,0.00
2022-10-13T01:11:19.289Z,0.00
2022-10-13T01:12:19.600Z,0.00
2022-10-13T01:13:19.297Z,0.00
2022-10-13T01:14:19.271Z,0.00
2022-10-13T01:15:19.262Z,0.00
2022-10-13T01:16:19.258Z,0.00
2022-10-13T01:17:19.233Z,0.00
2022-10-13T01:18:19.222Z,0.00
2022-10-13T01:19:19.245Z,0.00
2022-10-13T01:20:19.241Z,0.00
2022-10-13T01:21:19.219Z,0.00
2022-10-13T01:22:19.589Z,0.00
2022-10-13T01:23:19.186Z,0.00
2022-10-13T01:24:19.214Z,0.00
2022-10-13T01:25:19.181Z,0.00
2022-10-13T01:26:19.165Z,0.00
2022-10-13T01:27:19.213Z,0.00
2022-10-13T01:28:19.163Z,0.00
2022-10-13T01:29:19.111Z,0.00
2022-10-13T01:30:19.102Z,0.00
2022-10-13T01:31:19.136Z,0.00
2022-10-13T01:32:19.405Z,0.00
2022-10-13T01:33:19.079Z,0.00
2022-10-13T01:34:19.074Z,0.00
2022-10-13T01:35:19.104Z,0.00
2022-10-13T01:36:19.058Z,0.00
2022-10-13T01:37:19.033Z,0.00
2022-10-13T01:38:19.058Z,0.00
2022-10-13T01:39:19.016Z,0.00
2022-10-13T01:40:19.035Z,0.00
2022-10-13T01:41:19.021Z,0.00
2022-10-13T01:42:19.305Z,0.00
2022-10-13T01:43:18.982Z,0.00
2022-10-13T01:44:19.011Z,0.00
2022-10-13T01:45:18.962Z,0.00
2022-10-13T01:46:19.987Z,0.00
2022-10-13T01:47:18.947Z,0.00
2022-10-13T01:48:18.933Z,0.00
2022-10-13T01:49:18.926Z,0.00
2022-10-13T01:50:18.954Z,0.00
2022-10-13T01:51:18.909Z,0.00
2022-10-13T01:52:19.275Z,0.00
2022-10-13T01:53:18.901Z,0.00
2022-10-13T01:54:18.889Z,0.00
2022-10-13T01:55:18.874Z,0.00
2022-10-13T01:56:18.858Z,0.00
2022-10-13T01:57:18.842Z,0.00
2022-10-13T01:58:18.834Z,0.00
2022-10-13T01:59:18.840Z,0.00
2022-10-13T02:00:18.813Z,0.00
2022-10-13T02:01:18.802Z,0.00
2022-10-13T02:02:19.272Z,0.00
2022-10-13T02:03:18.800Z,0.00
2022-10-13T02:04:18.823Z,0.00
2022-10-13T02:05:18.788Z,0.00
2022-10-13T02:06:18.770Z,0.00
2022-10-13T02:07:18.763Z,0.00
2022-10-13T02:08:18.757Z,0.00
2022-10-13T02:09:18.741Z,0.00
2022-10-13T02:10:18.727Z,0.00
2022-10-13T02:11:18.721Z,0.00
2022-10-13T02:12:18.936Z,0.00
2022-10-13T02:13:18.711Z,0.00
2022-10-13T02:14:18.682Z,0.00
2022-10-13T02:15:18.683Z,0.00
2022-10-13T02:16:18.653Z,0.00
2022-10-13T02:17:18.678Z,0.00
2022-10-13T02:18:18.671Z,0.00
2022-10-13T02:19:18.658Z,0.00
2022-10-13T02:20:18.628Z,0.00
2022-10-13T02:21:18.628Z,0.00
2022-10-13T02:22:18.924Z,0.00
2022-10-13T02:23:18.625Z,0.00
2022-10-13T02:24:18.591Z,0.00
2022-10-13T02:25:18.596Z,0.00
2022-10-13T02:26:18.595Z,0.00
2022-10-13T02:27:18.632Z,0.00
2022-10-13T02:28:18.600Z,0.00
2022-10-13T02:29:18.533Z,0.00
2022-10-13T02:30:18.513Z,0.00
2022-10-13T02:31:19.533Z,0.00
2022-10-13T02:32:18.812Z,0.00
2022-10-13T02:33:18.549Z,0.00
2022-10-13T02:34:18.494Z,0.00
2022-10-13T02:35:18.497Z,0.00
2022-10-13T02:36:28.383Z,0.00
2022-10-13T02:37:18.445Z,0.00
2022-10-13T02:38:18.455Z,0.00
2022-10-13T02:39:18.450Z,0.00
2022-10-13T02:40:18.451Z,0.00
2022-10-13T02:41:18.416Z,0.00
2022-10-13T02:42:19.073Z,0.00
2022-10-13T02:43:18.391Z,0.00
2022-10-13T02:44:18.388Z,0.00
2022-10-13T02:45:18.400Z,0.00
2022-10-13T02:46:18.367Z,0.00
2022-10-13T02:47:18.367Z,0.00
2022-10-13T02:48:18.353Z,0.00
2022-10-13T02:49:18.355Z,0.00
2022-10-13T02:50:18.354Z,0.00
2022-10-13T02:51:18.313Z,0.00
2022-10-13T02:52:18.638Z,0.00
2022-10-13T02:53:18.324Z,0.00
2022-10-13T02:54:18.283Z,0.00
2022-10-13T02:55:18.274Z,0.00
2022-10-13T02:56:18.265Z,0.00
2022-10-13T02:57:18.255Z,0.00
2022-10-13T02:58:18.260Z,0.00
2022-10-13T02:59:18.235Z,0.00
2022-10-13T03:00:18.260Z,0.00
2022-10-13T03:01:18.223Z,0.00
2022-10-13T03:02:18.783Z,0.00
2022-10-13T03:03:18.212Z,0.00
2022-10-13T03:04:18.316Z,0.00
2022-10-13T03:05:18.191Z,0.00
2022-10-13T03:06:18.179Z,0.00
2022-10-13T03:07:18.157Z,0.00
2022-10-13T03:08:18.146Z,0.00
2022-10-13T03:09:18.151Z,0.00
2022-10-13T03:10:18.124Z,0.00
2022-10-13T03:11:18.111Z,0.00
2022-10-13T03:12:18.368Z,0.00
2022-10-13T03:13:18.095Z,0.00
2022-10-13T03:14:18.105Z,0.00
2022-10-13T03:15:18.072Z,0.00
2022-10-13T03:16:18.067Z,0.00
2022-10-13T03:17:18.064Z,0.00
2022-10-13T03:18:18.049Z,0.00
2022-10-13T03:19:18.061Z,0.00
2022-10-13T03:20:18.028Z,0.00
2022-10-13T03:21:18.019Z,0.00
2022-10-13T03:22:18.345Z,0.00
2022-10-13T03:23:18.001Z,0.00
2022-10-13T03:24:17.990Z,0.00
2022-10-13T03:25:17.986Z,0.00
2022-10-13T03:26:17.966Z,0.00
2022-10-13T03:27:17.982Z,0.00
2022-10-13T03:28:17.992Z,0.00
2022-10-13T03:29:17.945Z,0.00
2022-10-13T03:30:17.927Z,0.00
2022-10-13T03:31:17.914Z,0.00
2022-10-13T03:32:18.283Z,0.00
2022-10-13T03:33:17.907Z,0.00
2022-10-13T03:34:17.893Z,0.00
2022-10-13T03:35:17.881Z,0.00
2022-10-13T03:36:17.872Z,0.00
2022-10-13T03:37:17.866Z,0.00
2022-10-13T03:38:17.869Z,0.00
2022-10-13T03:39:17.843Z,0.00
2022-10-13T03:40:17.828Z,0.00
2022-10-13T03:41:17.824Z,0.00
2022-10-13T03:42:18.130Z,0.00
2022-10-13T03:43:17.819Z,0.00
2022-10-13T03:44:17.789Z,0.00
2022-10-13T03:45:17.781Z,0.00
2022-10-13T03:46:17.774Z,0.00
2022-10-13T03:47:17.760Z,0.00
2022-10-13T03:48:17.755Z,0.00
2022-10-13T03:49:17.763Z,0.00
2022-10-13T03:50:17.732Z,0.00
2022-10-13T03:51:17.719Z,0.00
2022-10-13T03:52:18.155Z,0.00
2022-10-13T03:53:17.701Z,0.00
2022-10-13T03:54:17.701Z,0.00
2022-10-13T03:55:17.676Z,0.00
2022-10-13T03:56:17.674Z,0.00
2022-10-13T03:57:17.679Z,0.00
2022-10-13T03:58:17.662Z,0.00
2022-10-13T03:59:17.631Z,0.00
2022-10-13T04:00:17.630Z,0.00
2022-10-13T04:01:17.628Z,0.00
2022-10-13T04:02:17.937Z,0.00
2022-10-13T04:03:17.604Z,0.00
2022-10-13T04:04:17.599Z,0.00
2022-10-13T04:05:17.607Z,0.00
2022-10-13T04:06:17.579Z,0.00
2022-10-13T04:07:17.570Z,0.00
2022-10-13T04:08:17.549Z,0.00
2022-10-13T04:09:17.554Z,0.00
2022-10-13T04:10:17.545Z,0.00
2022-10-13T04:11:17.551Z,0.00
2022-10-13T04:12:20.868Z,0.00
2022-10-13T04:13:18.517Z,0.00
2022-10-13T04:14:17.500Z,0.00
2022-10-13T04:15:17.492Z,0.00
2022-10-13T04:16:17.506Z,0.00
2022-10-13T04:17:17.478Z,0.00
2022-10-13T04:18:17.474Z,0.00
2022-10-13T04:19:17.449Z,0.00
2022-10-13T04:20:17.440Z,0.00
2022-10-13T04:21:17.437Z,0.00
2022-10-13T04:22:17.829Z,0.00
2022-10-13T04:23:17.409Z,0.00
2022-10-13T04:24:17.409Z,0.00
2022-10-13T04:25:17.390Z,0.00
2022-10-13T04:26:17.389Z,0.00
2022-10-13T04:27:17.416Z,0.00
2022-10-13T04:28:17.417Z,0.00
2022-10-13T04:29:17.346Z,0.00
2022-10-13T04:30:17.342Z,0.00
2022-10-13T04:31:17.339Z,0.00
2022-10-13T04:32:17.703Z,0.00
2022-10-13T04:33:17.370Z,0.00
2022-10-13T04:34:17.308Z,0.00
2022-10-13T04:35:17.288Z,0.00
2022-10-13T04:36:17.288Z,0.00
2022-10-13T04:37:17.278Z,0.00
2022-10-13T04:38:17.291Z,0.00
2022-10-13T04:39:17.260Z,0.00
2022-10-13T04:40:17.264Z,0.00
2022-10-13T04:41:17.229Z,0.00
2022-10-13T04:42:17.585Z,0.00
2022-10-13T04:43:17.216Z,0.00
2022-10-13T04:44:17.201Z,0.00
2022-10-13T04:45:17.208Z,0.00
2022-10-13T04:46:17.186Z,0.00
2022-10-13T04:47:17.176Z,0.00
2022-10-13T04:48:17.157Z,0.00
2022-10-13T04:49:17.168Z,0.00
2022-10-13T04:50:18.162Z,0.00
2022-10-13T04:51:17.135Z,0.00
2022-10-13T04:52:17.321Z,0.00
2022-10-13T04:53:19.314Z,0.00
2022-10-13T04:54:18.110Z,0.00
2022-10-13T04:55:17.088Z,0.00
2022-10-13T04:56:17.109Z,0.00
2022-10-13T04:57:17.075Z,0.00
2022-10-13T04:58:17.064Z,0.00
2022-10-13T04:59:17.062Z,0.00
2022-10-13T05:00:17.050Z,0.00
2022-10-13T05:01:21.349Z,0.00
2022-10-13T05:02:18.326Z,0.00
2022-10-13T05:03:17.010Z,0.00
2022-10-13T05:04:17.011Z,0.00
2022-10-13T05:05:17.007Z,0.00
2022-10-13T05:06:17.010Z,0.00
2022-10-13T05:07:18.470Z,0.00
2022-10-13T05:08:17.976Z,0.00
2022-10-13T05:09:16.959Z,0.00
2022-10-13T05:10:16.952Z,0.00
2022-10-13T05:11:16.956Z,0.00
2022-10-13T05:12:17.086Z,0.00
2022-10-13T05:13:16.917Z,0.00
2022-10-13T05:14:16.912Z,0.00
2022-10-13T05:15:16.903Z,0.00
2022-10-13T05:16:16.889Z,0.00
2022-10-13T05:17:17.003Z,0.00
2022-10-13T05:18:16.892Z,0.00
2022-10-13T05:19:16.866Z,0.00
2022-10-13T05:20:16.858Z,0.00
2022-10-13T05:21:16.843Z,0.00
2022-10-13T05:22:17.071Z,0.00
2022-10-13T05:23:16.816Z,0.00
2022-10-13T05:24:16.806Z,0.00
2022-10-13T05:25:16.811Z,0.00
2022-10-13T05:26:16.797Z,0.00
2022-10-13T05:27:16.796Z,0.00
2022-10-13T05:28:16.890Z,0.00
2022-10-13T05:29:16.784Z,0.00
2022-10-13T05:30:16.778Z,0.00
2022-10-13T05:31:16.742Z,0.00
2022-10-13T05:32:17.002Z,0.00
2022-10-13T05:33:16.713Z,0.00
2022-10-13T05:34:16.728Z,0.00
2022-10-13T05:35:16.716Z,0.00
2022-10-13T05:36:16.691Z,0.00
2022-10-13T05:37:16.688Z,0.00
2022-10-13T05:38:16.684Z,0.00
2022-10-13T05:39:16.723Z,5.62
2022-10-13T05:40:16.643Z,5.62
2022-10-13T05:41:16.645Z,5.62
2022-10-13T05:42:16.764Z,5.62
2022-10-13T05:43:16.640Z,5.62
2022-10-13T05:44:16.629Z,5.62
2022-10-13T05:45:16.603Z,5.62
2022-10-13T05:46:16.596Z,5.62
2022-10-13T05:47:16.608Z,5.62
2022-10-13T05:48:16.577Z,5.62
2022-10-13T05:49:16.569Z,5.62
2022-10-13T05:50:16.558Z,5.62
2022-10-13T05:51:16.559Z,5.62
2022-10-13T05:52:16.784Z,5.62
2022-10-13T05:53:16.542Z,5.62
2022-10-13T05:54:16.532Z,11.25
2022-10-13T05:55:16.512Z,11.25
2022-10-13T05:56:16.528Z,11.25
2022-10-13T05:57:16.486Z,11.25
2022-10-13T05:58:16.476Z,11.25
2022-10-13T05:59:16.495Z,11.25
2022-10-13T06:00:16.489Z,11.25
2022-10-13T06:01:16.471Z,16.88
2022-10-13T06:02:16.501Z,16.88
2022-10-13T06:03:16.433Z,16.88
2022-10-13T06:04:16.422Z,22.50
2022-10-13T06:05:16.422Z,22.50
2022-10-13T06:06:16.401Z,28.12
2022-10-13T06:07:16.412Z,28.12
2022-10-13T06:08:16.380Z,28.12
2022-10-13T06:09:16.374Z,28.12
2022-10-13T06:10:16.362Z,33.75
2022-10-13T06:11:16.356Z,33.75
2022-10-13T06:12:16.391Z,39.38
2022-10-13T06:13:16.372Z,39.38
2022-10-13T06:14:16.323Z,45.00
2022-10-13T06:15:16.329Z,45.00
2022-10-13T06:16:16.305Z,50.62
2022-10-13T06:17:16.325Z,50.62
2022-10-13T06:18:16.341Z,56.25
2022-10-13T06:19:16.279Z,56.25
2022-10-13T06:20:16.263Z,61.88
2022-10-13T06:21:16.264Z,67.50
2022-10-13T06:22:16.242Z,67.50
2022-10-13T06:23:16.242Z,78.75
2022-10-13T06:24:16.245Z,84.38
2022-10-13T06:25:16.214Z,78.75
2022-10-13T06:26:16.213Z,78.75
2022-10-13T06:27:16.201Z,84.38
2022-10-13T06:28:16.261Z,90.00
2022-10-13T06:29:16.209Z,90.00
2022-10-13T06:30:16.177Z,101.25
2022-10-13T06:31:16.162Z,123.75
2022-10-13T06:32:16.163Z,135.00
2022-10-13T06:33:16.145Z,151.88
2022-10-13T06:34:16.156Z,140.62
2022-10-13T06:35:16.140Z,129.38
2022-10-13T06:36:16.123Z,135.00
2022-10-13T06:37:16.122Z,123.75
2022-10-13T06:38:16.092Z,123.75
2022-10-13T06:39:16.091Z,129.38
2022-10-13T06:40:16.109Z,129.38
2022-10-13T06:41:16.072Z,123.75
2022-10-13T06:42:16.061Z,118.12
2022-10-13T06:43:16.053Z,123.75
2022-10-13T06:44:16.033Z,129.38
2022-10-13T06:45:16.048Z,135.00
2022-10-13T06:46:16.007Z,123.75
2022-10-13T06:47:16.035Z,118.12
2022-10-13T06:48:15.997Z,112.50
2022-10-13T06:49:15.989Z,106.88
2022-10-13T06:50:15.983Z,101.25
2022-10-13T06:51:16.001Z,95.62
2022-10-13T06:52:15.979Z,95.62
2022-10-13T06:53:15.947Z,106.88
2022-10-13T06:54:15.948Z,123.75
2022-10-13T06:55:15.927Z,112.50
2022-10-13T06:56:15.910Z,95.62
2022-10-13T06:57:15.905Z,90.00
2022-10-13T06:58:15.901Z,95.62
2022-10-13T06:59:15.889Z,101.25
2022-10-13T07:00:15.907Z,106.88
2022-10-13T07:01:15.859Z,112.50
2022-10-13T07:02:15.848Z,101.25
2022-10-13T07:03:15.854Z,101.25
2022-10-13T07:04:15.824Z,112.50
2022-10-13T07:05:15.843Z,118.12
2022-10-13T07:06:15.829Z,112.50
2022-10-13T07:07:15.805Z,118.12
2022-10-13T07:08:15.798Z,118.12
2022-10-13T07:09:15.782Z,129.38
2022-10-13T07:10:15.794Z,129.38
2022-10-13T07:11:16.621Z,140.62
2022-10-13T07:12:15.764Z,140.62
2022-10-13T07:13:15.823Z,135.00
2022-10-13T07:14:15.741Z,140.62
2022-10-13T07:15:15.728Z,140.62
2022-10-13T07:16:15.757Z,140.62
2022-10-13T07:17:15.708Z,135.00
2022-10-13T07:18:15.692Z,135.00
2022-10-13T07:19:15.705Z,123.75
2022-10-13T07:20:15.699Z,118.12
2022-10-13T07:21:15.685Z,123.75
2022-10-13T07:22:15.662Z,123.75
2022-10-13T07:23:15.644Z,118.12
2022-10-13T07:24:15.644Z,118.12
2022-10-13T07:25:15.656Z,123.75
2022-10-13T07:26:15.631Z,129.38
2022-10-13T07:27:15.630Z,129.38
2022-10-13T07:28:15.644Z,129.38
2022-10-13T07:29:15.640Z,129.38
2022-10-13T07:30:15.583Z,135.00
2022-10-13T07:31:15.579Z,135.00
2022-10-13T07:32:15.564Z,129.38
2022-10-13T07:33:15.557Z,123.75
2022-10-13T07:34:15.582Z,129.38
2022-10-13T07:35:15.540Z,123.75
2022-10-13T07:36:15.536Z,129.38
2022-10-13T07:37:15.534Z,129.38
2022-10-13T07:38:15.534Z,123.75
2022-10-13T07:39:15.502Z,123.75
2022-10-13T07:40:15.500Z,123.75
2022-10-13T07:41:15.484Z,129.38
2022-10-13T07:42:15.459Z,135.00
2022-10-13T07:43:16.465Z,140.62
2022-10-13T07:44:15.456Z,146.25
2022-10-13T07:45:15.440Z,151.88
2022-10-13T07:46:15.430Z,157.50
2022-10-13T07:47:15.445Z,168.75
2022-10-13T07:48:15.444Z,174.38
2022-10-13T07:49:16.380Z,174.38
2022-10-13T07:50:15.391Z,174.38
2022-10-13T07:51:15.377Z,168.75
2022-10-13T07:52:15.420Z,168.75
2022-10-13T07:53:15.383Z,174.38
2022-10-13T07:54:15.355Z,174.38
2022-10-13T07:55:15.342Z,180.00
2022-10-13T07:56:15.360Z,180.00
2022-10-13T07:57:15.325Z,185.62
2022-10-13T07:58:15.330Z,174.38
2022-10-13T07:59:15.302Z,168.75
2022-10-13T08:00:15.295Z,174.38
2022-10-13T08:01:15.337Z,185.62
2022-10-13T08:02:15.291Z,196.88
2022-10-13T08:03:15.289Z,191.25
2022-10-13T08:04:15.261Z,185.62
2022-10-13T08:05:15.245Z,185.62
2022-10-13T08:06:15.990Z,196.88
2022-10-13T08:07:15.242Z,196.88
2022-10-13T08:08:15.247Z,191.25
2022-10-13T08:09:15.223Z,185.62
2022-10-13T08:10:15.216Z,185.62
2022-10-13T08:11:16.731Z,202.50
2022-10-13T08:12:15.178Z,219.38
2022-10-13T08:13:15.181Z,225.00
2022-10-13T08:14:15.174Z,236.25
2022-10-13T08:15:15.155Z,247.50
2022-10-13T08:16:15.178Z,264.38
2022-10-13T08:17:15.123Z,275.62
2022-10-13T08:18:15.130Z,270.00
2022-10-13T08:19:15.112Z,258.75
2022-10-13T08:20:15.089Z,264.38
2022-10-13T08:22:16.093Z,303.75
2022-10-13T08:23:15.071Z,292.50
2022-10-13T08:24:15.053Z,281.25
2022-10-13T08:25:15.074Z,281.25
2022-10-13T08:26:15.040Z,281.25
2022-10-13T08:27:15.039Z,258.75
2022-10-13T08:28:15.061Z,247.50
2022-10-13T08:29:23.338Z,247.50
2022-10-13T08:30:17.128Z,241.88
2022-10-13T08:31:15.160Z,225.00
2022-10-13T08:32:14.991Z,219.38
2022-10-13T08:33:14.965Z,213.75
2022-10-13T08:34:14.971Z,219.38
2022-10-13T08:35:14.971Z,213.75
2022-10-13T08:36:14.978Z,213.75
2022-10-13T08:37:46.825Z,208.12
2022-10-13T08:38:14.933Z,208.12
2022-10-13T08:39:14.912Z,213.75
2022-10-13T08:40:14.903Z,225.00
2022-10-13T08:41:14.919Z,241.88
2022-10-13T08:42:14.891Z,253.12
2022-10-13T08:43:14.877Z,258.75
2022-10-13T08:44:59.224Z,264.38
2022-10-13T08:45:39.853Z,258.75
2022-10-13T08:46:16.857Z,258.75
2022-10-13T08:47:14.844Z,258.75
2022-10-13T08:48:14.830Z,258.75
2022-10-13T08:49:14.845Z,253.12
2022-10-13T08:50:14.906Z,258.75
2022-10-13T08:51:14.802Z,258.75
2022-10-13T08:52:14.819Z,241.88
2022-10-13T08:53:14.784Z,241.88
2022-10-13T08:54:14.769Z,258.75
2022-10-13T08:55:14.790Z,253.12
2022-10-13T08:56:14.755Z,247.50
2022-10-13T08:57:14.753Z,247.50
2022-10-13T08:58:14.753Z,241.88
2022-10-13T08:59:14.728Z,253.12
2022-10-13T09:00:14.747Z,241.88
2022-10-13T09:01:14.830Z,247.50
2022-10-13T09:02:14.691Z,253.12
2022-10-13T09:03:14.673Z,258.75
2022-10-13T09:04:14.677Z,258.75
2022-10-13T09:05:14.673Z,258.75
2022-10-13T09:06:14.695Z,253.12
2022-10-13T09:07:14.658Z,258.75
2022-10-13T09:08:14.635Z,264.38
2022-10-13T09:09:14.621Z,264.38
2022-10-13T09:10:14.614Z,247.50
2022-10-13T09:11:14.625Z,241.88
2022-10-13T09:12:14.610Z,258.75
2022-10-13T09:13:14.599Z,264.38
2022-10-13T09:14:14.602Z,264.38
2022-10-13T09:15:14.591Z,275.62
2022-10-13T09:16:14.569Z,315.00
2022-10-13T09:18:14.547Z,315.00
2022-10-13T09:19:14.598Z,303.75
2022-10-13T09:20:14.509Z,303.75
2022-10-13T09:21:14.511Z,303.75
2022-10-13T09:22:14.494Z,326.25
2022-10-13T09:23:14.487Z,292.50
2022-10-13T09:24:14.521Z,270.00
2022-10-13T09:25:14.510Z,258.75
2022-10-13T09:26:14.500Z,236.25
2022-10-13T09:27:15.464Z,219.38
2022-10-13T09:28:14.474Z,196.88
2022-10-13T09:29:14.443Z,185.62
2022-10-13T09:30:14.417Z,174.38
2022-10-13T09:31:14.415Z,168.75
2022-10-13T09:32:14.426Z,174.38
2022-10-13T09:33:14.390Z,185.62
2022-10-13T09:34:14.389Z,202.50
2022-10-13T09:35:14.384Z,191.25
2022-10-13T09:36:14.394Z,185.62
2022-10-13T09:37:14.355Z,174.38
2022-10-13T09:38:14.358Z,157.50
2022-10-13T09:39:14.336Z,146.25
2022-10-13T09:40:14.327Z,129.38
2022-10-13T09:41:14.318Z,123.75
2022-10-13T09:42:14.312Z,129.38
2022-10-13T09:43:14.317Z,135.00
2022-10-13T09:44:14.287Z,146.25
2022-10-13T09:45:14.321Z,168.75
2022-10-13T09:46:14.304Z,191.25
2022-10-13T09:47:14.303Z,219.38
2022-10-13T09:48:14.259Z,230.62
2022-10-13T09:49:14.243Z,241.88
2022-10-13T09:50:14.290Z,247.50
2022-10-13T09:51:14.232Z,247.50
2022-10-13T09:52:14.228Z,258.75
2022-10-13T09:53:14.216Z,258.75
2022-10-13T09:54:14.245Z,258.75
2022-10-13T09:55:14.179Z,264.38
2022-10-13T09:56:14.228Z,270.00
2022-10-13T09:57:14.189Z,275.62
2022-10-13T09:58:14.154Z,286.88
2022-10-13T09:59:14.156Z,292.50
2022-10-13T10:00:14.226Z,315.00
2022-10-13T10:01:14.129Z,343.12
2022-10-13T10:02:18.020Z,354.38
2022-10-13T10:03:15.147Z,348.75
2022-10-13T10:04:14.141Z,331.88
2022-10-13T10:05:14.093Z,331.88
2022-10-13T10:06:14.085Z,360.00
2022-10-13T10:07:14.066Z,399.38
2022-10-13T10:08:14.097Z,421.88
2022-10-13T10:09:14.059Z,393.75
2022-10-13T10:10:14.115Z,399.38
2022-10-13T10:11:14.038Z,410.62
2022-10-13T10:12:14.062Z,405.00
2022-10-13T10:13:14.025Z,393.75
2022-10-13T10:14:13.991Z,399.38
2022-10-13T10:15:13.995Z,405.00
2022-10-13T10:16:13.985Z,393.75
2022-10-13T10:17:13.991Z,388.12
2022-10-13T10:18:13.944Z,376.88
2022-10-13T10:19:13.945Z,365.62
2022-10-13T10:20:13.984Z,371.25
2022-10-13T10:21:13.959Z,388.12
2022-10-13T10:22:13.915Z,405.00
2022-10-13T10:23:13.905Z,393.75
2022-10-13T10:24:13.941Z,399.38
2022-10-13T10:25:13.881Z,405.00
2022-10-13T10:26:13.870Z,421.88
2022-10-13T10:27:13.913Z,450.00
2022-10-13T10:28:13.954Z,472.50
2022-10-13T10:29:13.838Z,472.50
2022-10-13T10:30:13.849Z,478.12
2022-10-13T10:31:13.826Z,466.88
2022-10-13T10:32:13.840Z,461.25
2022-10-13T10:33:13.797Z,466.88
2022-10-13T10:34:15.471Z,478.12
2022-10-13T10:35:13.804Z,472.50
2022-10-13T10:36:13.788Z,455.62
2022-10-13T10:37:13.793Z,455.62
2022-10-13T10:38:13.784Z,455.62
2022-10-13T10:39:13.772Z,455.62
2022-10-13T10:40:13.753Z,433.12
2022-10-13T10:41:13.720Z,416.25
2022-10-13T10:42:13.825Z,421.88
2022-10-13T10:43:13.738Z,416.25
2022-10-13T10:44:13.749Z,399.38
2022-10-13T10:45:13.726Z,376.88
2022-10-13T10:46:13.694Z,365.62
2022-10-13T10:47:13.675Z,348.75
2022-10-13T10:48:13.663Z,343.12
2022-10-13T10:49:13.659Z,331.88
2022-10-13T10:50:13.638Z,331.88
2022-10-13T10:51:13.643Z,326.25
2022-10-13T10:52:13.634Z,315.00
2022-10-13T10:53:13.621Z,326.25
2022-10-13T10:54:13.628Z,331.88
2022-10-13T10:55:13.608Z,354.38
2022-10-13T10:56:13.576Z,365.62
2022-10-13T10:57:13.568Z,371.25
2022-10-13T10:58:13.559Z,371.25
2022-10-13T10:59:13.578Z,360.00
2022-10-13T11:00:13.613Z,331.88
2022-10-13T11:01:13.563Z,315.00
2022-10-13T11:02:13.522Z,292.50
2022-10-13T11:03:13.510Z,292.50
2022-10-13T11:04:13.504Z,286.88
2022-10-13T11:05:13.515Z,281.25
2022-10-13T11:06:13.484Z,275.62
2022-10-13T11:07:13.543Z,275.62
2022-10-13T11:08:13.463Z,264.38
2022-10-13T11:09:13.455Z,258.75
2022-10-13T11:10:13.462Z,258.75
2022-10-13T11:11:13.453Z,258.75
2022-10-13T11:12:13.450Z,258.75
2022-10-13T11:13:13.423Z,270.00
2022-10-13T11:14:13.421Z,298.12
2022-10-13T11:15:13.384Z,331.88
2022-10-13T11:16:13.399Z,354.38
2022-10-13T11:17:13.400Z,365.62
2022-10-13T11:18:13.435Z,382.50
2022-10-13T11:19:13.369Z,382.50
2022-10-13T11:20:13.353Z,382.50
2022-10-13T11:21:13.346Z,371.25
2022-10-13T11:22:13.324Z,360.00
2022-10-13T11:23:13.322Z,337.50
2022-10-13T11:24:13.291Z,315.00
2022-10-13T11:25:13.284Z,286.88
2022-10-13T11:26:13.283Z,275.62
2022-10-13T11:27:13.291Z,270.00
2022-10-13T11:28:13.302Z,270.00
2022-10-13T11:29:13.242Z,258.75
2022-10-13T11:30:13.249Z,247.50
2022-10-13T11:31:13.247Z,247.50
2022-10-13T11:32:13.232Z,264.38
2022-10-13T11:33:13.211Z,286.88
2022-10-13T11:34:13.192Z,326.25
2022-10-13T11:35:13.193Z,365.62
2022-10-13T11:36:13.181Z,393.75
2022-10-13T11:37:13.171Z,416.25
2022-10-13T11:38:17.595Z,427.50
2022-10-13T11:39:14.167Z,427.50
2022-10-13T11:40:13.146Z,433.12
2022-10-13T11:41:13.140Z,433.12
2022-10-13T11:42:13.117Z,427.50
2022-10-13T11:43:14.121Z,427.50
2022-10-13T11:44:13.100Z,427.50
2022-10-13T11:45:13.090Z,427.50
2022-10-13T11:46:13.069Z,427.50
2022-10-13T11:47:13.071Z,427.50
2022-10-13T11:48:13.095Z,427.50
2022-10-13T11:49:13.050Z,433.12
2022-10-13T11:50:13.038Z,444.38
2022-10-13T11:51:15.520Z,472.50
2022-10-13T11:52:13.040Z,534.38
2022-10-13T11:53:13.026Z,568.12
2022-10-13T11:54:13.002Z,618.75
2022-10-13T11:55:12.994Z,646.88
2022-10-13T11:56:12.981Z,669.38
2022-10-13T11:57:12.999Z,658.12
2022-10-13T11:58:12.955Z,697.50
2022-10-13T11:59:12.946Z,658.12
2022-10-13T12:00:12.954Z,630.00
2022-10-13T12:01:12.940Z,607.50
2022-10-13T12:02:12.943Z,585.00
2022-10-13T12:03:13.025Z,601.88
2022-10-13T12:04:12.894Z,630.00
2022-10-13T12:05:12.899Z,624.38
2022-10-13T12:06:12.899Z,579.38
2022-10-13T12:07:12.880Z,568.12
2022-10-13T12:08:12.881Z,500.62
2022-10-13T12:09:12.870Z,450.00
2022-10-13T12:10:12.868Z,444.38
2022-10-13T12:11:12.851Z,416.25
2022-10-13T12:12:12.823Z,393.75
2022-10-13T12:13:12.826Z,410.62
2022-10-13T12:14:12.824Z,393.75
2022-10-13T12:15:12.802Z,360.00
2022-10-13T12:16:12.821Z,343.12
2022-10-13T12:17:17.136Z,331.88
2022-10-13T12:18:13.792Z,326.25
2022-10-13T12:19:12.776Z,320.62
2022-10-13T12:20:12.753Z,320.62
2022-10-13T12:21:12.741Z,331.88
2022-10-13T12:22:12.726Z,365.62
2022-10-13T12:23:12.715Z,388.12
2022-10-13T12:24:12.710Z,382.50
2022-10-13T12:25:12.702Z,343.12
2022-10-13T12:26:12.686Z,292.50
2022-10-13T12:27:12.692Z,270.00
2022-10-13T12:28:12.726Z,253.12
2022-10-13T12:29:12.666Z,247.50
2022-10-13T12:30:12.651Z,253.12
2022-10-13T12:31:12.640Z,264.38
2022-10-13T12:32:12.650Z,270.00
2022-10-13T12:33:12.628Z,275.62
2022-10-13T12:34:12.643Z,281.25
2022-10-13T12:35:12.597Z,270.00
2022-10-13T12:36:12.598Z,247.50
2022-10-13T12:37:12.608Z,236.25
2022-10-13T12:38:12.574Z,247.50
2022-10-13T12:39:12.576Z,270.00
2022-10-13T12:40:12.557Z,275.62
2022-10-13T12:41:12.549Z,281.25
2022-10-13T12:42:12.555Z,270.00
2022-10-13T12:43:12.530Z,264.38
2022-10-13T12:44:12.512Z,241.88
2022-10-13T12:45:12.532Z,202.50
2022-10-13T12:46:12.521Z,174.38
2022-10-13T12:47:12.488Z,157.50
2022-10-13T12:48:12.479Z,140.62
2022-10-13T12:49:12.484Z,140.62
2022-10-13T12:50:12.475Z,146.25
2022-10-13T12:51:12.454Z,151.88
2022-10-13T12:52:12.431Z,140.62
2022-10-13T12:53:12.503Z,129.38